createdAt,value
2023-02-02T00:01:49.561Z,0.95
2023-02-02T00:04:29.257Z,0.98
2023-02-02T00:06:58.236Z,1.02
2023-02-02T00:09:29.596Z,1.06
2023-02-02T00:11:59.333Z,1.09
2023-02-02T00:14:27.639Z,1.12
2023-02-02T00:16:57.128Z,1.16
2023-02-02T00:19:28.015Z,1.18
2023-02-02T00:21:56.938Z,1.18
2023-02-02T00:24:24.867Z,1.22
2023-02-02T00:26:56.396Z,1.26
2023-02-02T00:29:27.567Z,1.31
2023-02-02T00:31:55.665Z,1.33
2023-02-02T00:34:24.309Z,1.34
2023-02-02T00:36:52.901Z,1.36
2023-02-02T00:39:26.031Z,1.37
2023-02-02T00:41:55.027Z,1.38
2023-02-02T00:44:41.561Z,1.38
2023-02-02T00:47:09.732Z,1.38
2023-02-02T00:49:37.985Z,1.37
2023-02-02T00:52:06.305Z,1.35
2023-02-02T00:54:34.377Z,1.32
2023-02-02T00:57:04.308Z,1.26
2023-02-02T00:59:33.337Z,1.23
2023-02-02T01:02:02.288Z,1.19
2023-02-02T01:04:30.768Z,1.18
2023-02-02T01:06:58.879Z,1.15
2023-02-02T01:09:27.037Z,1.13
2023-02-02T01:11:55.329Z,1.12
2023-02-02T01:14:23.629Z,1.11
2023-02-02T01:16:51.573Z,1.08
2023-02-02T01:19:19.800Z,1.02
2023-02-02T01:21:47.820Z,0.97
2023-02-02T01:24:15.786Z,0.89
2023-02-02T01:26:43.895Z,0.82
2023-02-02T01:29:12.592Z,0.77
2023-02-02T01:31:40.815Z,0.71
2023-02-02T01:34:09.310Z,0.69
2023-02-02T01:36:38.005Z,0.69
2023-02-02T01:39:06.273Z,0.68
2023-02-02T01:41:34.213Z,0.64
2023-02-02T01:44:05.605Z,0.61
2023-02-02T01:46:37.452Z,0.59
2023-02-02T01:49:14.531Z,0.56
2023-02-02T01:51:56.595Z,0.54
2023-02-02T01:54:29.003Z,0.52
2023-02-02T01:57:21.652Z,0.50
2023-02-02T01:59:52.287Z,0.48
2023-02-02T02:02:21.090Z,0.46
2023-02-02T02:04:51.402Z,0.43
2023-02-02T02:07:19.879Z,0.41
2023-02-02T02:09:48.261Z,0.42
2023-02-02T02:12:17.510Z,0.42
2023-02-02T02:15:07.911Z,0.41
2023-02-02T02:17:54.358Z,0.42
2023-02-02T02:21:11.994Z,0.45
2023-02-02T02:24:26.454Z,0.44
2023-02-02T02:27:15.821Z,0.43
2023-02-02T02:30:07.960Z,0.42
2023-02-02T02:32:41.582Z,0.41
2023-02-02T02:35:31.243Z,0.40
2023-02-02T02:38:08.220Z,0.39
2023-02-02T02:40:38.136Z,0.39
2023-02-02T02:43:14.096Z,0.40
2023-02-02T02:45:44.714Z,0.40
2023-02-02T02:48:13.308Z,0.40
2023-02-02T02:50:41.544Z,0.42
2023-02-02T02:53:22.379Z,0.42
2023-02-02T02:55:56.670Z,0.43
2023-02-02T02:58:38.466Z,0.43
2023-02-02T03:01:17.177Z,0.41
2023-02-02T03:04:22.328Z,0.39
2023-02-02T03:07:01.463Z,0.38
2023-02-02T03:09:36.089Z,0.39
2023-02-02T03:12:04.409Z,0.40
2023-02-02T03:14:37.431Z,0.40
2023-02-02T03:17:05.408Z,0.39
2023-02-02T03:19:33.770Z,0.37
2023-02-02T03:22:01.871Z,0.34
2023-02-02T03:24:29.792Z,0.33
2023-02-02T03:26:57.813Z,0.31
2023-02-02T03:29:27.905Z,0.31
2023-02-02T03:31:55.979Z,0.30
2023-02-02T03:34:23.918Z,0.29
2023-02-02T03:36:51.841Z,0.28
2023-02-02T03:39:19.869Z,0.27
2023-02-02T03:41:47.741Z,0.26
2023-02-02T03:44:15.738Z,0.24
2023-02-02T03:46:43.742Z,0.23
2023-02-02T03:49:11.891Z,0.23
2023-02-02T03:51:39.858Z,0.24
2023-02-02T03:54:07.834Z,0.24
2023-02-02T03:56:35.724Z,0.24
2023-02-02T03:59:03.900Z,0.23
2023-02-02T04:01:32.064Z,0.22
2023-02-02T04:04:00.223Z,0.21
2023-02-02T04:06:28.280Z,0.23
2023-02-02T04:08:56.370Z,0.23
2023-02-02T04:11:24.284Z,0.23
2023-02-02T04:13:52.279Z,0.24
2023-02-02T04:16:20.446Z,0.25
2023-02-02T04:18:48.663Z,0.25
2023-02-02T04:21:16.730Z,0.24
2023-02-02T04:23:44.706Z,0.22
2023-02-02T04:26:12.769Z,0.21
2023-02-02T04:28:40.650Z,0.21
2023-02-02T04:31:08.616Z,0.21
2023-02-02T04:33:36.658Z,0.21
2023-02-02T04:36:05.265Z,0.22
2023-02-02T04:38:33.255Z,0.22
2023-02-02T04:41:10.077Z,0.21
2023-02-02T04:43:39.070Z,0.20
2023-02-02T04:46:07.052Z,0.19
2023-02-02T04:48:35.146Z,0.18
2023-02-02T04:51:09.733Z,0.19
2023-02-02T04:53:38.171Z,0.22
2023-02-02T04:56:12.678Z,0.22
2023-02-02T04:58:41.113Z,0.21
2023-02-02T05:01:22.619Z,0.20
2023-02-02T05:03:51.522Z,0.21
2023-02-02T05:06:19.783Z,0.20
2023-02-02T05:08:48.940Z,0.18
2023-02-02T05:11:19.553Z,0.18
2023-02-02T05:13:49.638Z,0.19
2023-02-02T05:16:17.871Z,0.20
2023-02-02T05:18:50.821Z,0.21
2023-02-02T05:21:19.926Z,0.22
2023-02-02T05:23:47.885Z,0.22
2023-02-02T05:26:23.156Z,0.19
2023-02-02T05:28:52.531Z,0.17
2023-02-02T05:31:20.792Z,0.16
2023-02-02T05:33:48.816Z,0.13
2023-02-02T05:36:16.804Z,0.10
2023-02-02T05:38:44.819Z,0.08
2023-02-02T05:41:12.992Z,0.07
2023-02-02T05:43:41.073Z,0.06
2023-02-02T05:46:09.269Z,0.07
2023-02-02T05:48:37.281Z,0.07
2023-02-02T05:51:22.253Z,0.08
2023-02-02T05:53:50.457Z,0.08
2023-02-02T05:56:18.525Z,0.07
2023-02-02T05:58:49.766Z,0.07
2023-02-02T06:01:19.391Z,0.05
2023-02-02T06:03:47.658Z,0.02
2023-02-02T06:06:15.841Z,-0.02
2023-02-02T06:08:43.803Z,-0.04
2023-02-02T06:11:14.233Z,-0.06
2023-02-02T06:13:45.765Z,-0.09
2023-02-02T06:16:14.252Z,-0.13
2023-02-02T06:18:42.613Z,-0.16
2023-02-02T06:21:12.286Z,-0.18
2023-02-02T06:23:46.017Z,-0.21
2023-02-02T06:26:15.727Z,-0.23
2023-02-02T06:28:49.441Z,-0.25
2023-02-02T06:31:19.582Z,-0.25
2023-02-02T06:33:52.988Z,-0.26
2023-02-02T06:36:21.679Z,-0.30
2023-02-02T06:38:51.481Z,-0.31
2023-02-02T06:41:20.826Z,-0.28
2023-02-02T06:43:49.785Z,-0.26
2023-02-02T06:46:18.272Z,-0.22
2023-02-02T06:48:46.543Z,-0.17
2023-02-02T06:51:15.035Z,-0.11
2023-02-02T06:53:43.056Z,-0.05
2023-02-02T06:56:13.091Z,0.01
2023-02-02T06:58:41.594Z,0.07
2023-02-02T07:01:12.924Z,0.12
2023-02-02T07:03:41.829Z,0.17
2023-02-02T07:06:20.690Z,0.21
2023-02-02T07:08:59.579Z,0.24
2023-02-02T07:11:35.883Z,0.26
2023-02-02T07:14:05.034Z,0.29
2023-02-02T07:16:33.224Z,0.31
2023-02-02T07:19:01.356Z,0.31
2023-02-02T07:21:35.474Z,0.30
2023-02-02T07:24:06.139Z,0.31
2023-02-02T07:26:35.939Z,0.32
2023-02-02T07:29:04.636Z,0.33
2023-02-02T07:31:36.069Z,0.34
2023-02-02T07:34:04.722Z,0.34
2023-02-02T07:36:33.475Z,0.35
2023-02-02T07:39:05.085Z,0.38
2023-02-02T07:41:36.663Z,0.40
2023-02-02T07:44:05.851Z,0.46
2023-02-02T07:46:33.732Z,0.52
2023-02-02T07:49:01.700Z,0.59
2023-02-02T07:51:29.940Z,0.68
2023-02-02T07:53:59.529Z,0.79
2023-02-02T07:56:28.507Z,0.90
2023-02-02T07:58:57.381Z,1.15
2023-02-02T08:01:27.393Z,1.39
2023-02-02T08:03:57.217Z,1.50
2023-02-02T08:06:32.213Z,1.56
2023-02-02T08:09:01.472Z,1.63
2023-02-02T08:11:30.048Z,1.68
2023-02-02T08:14:00.443Z,1.72
2023-02-02T08:16:30.719Z,1.77
2023-02-02T08:18:59.360Z,1.84
2023-02-02T08:21:27.718Z,1.97
2023-02-02T08:23:56.025Z,2.24
2023-02-02T08:26:26.673Z,2.78
2023-02-02T08:28:57.501Z,3.54
2023-02-02T08:31:35.302Z,4.19
2023-02-02T08:34:05.053Z,4.65
2023-02-02T08:36:35.641Z,5.00
2023-02-02T08:39:10.773Z,5.02
2023-02-02T08:41:38.752Z,4.87
2023-02-02T08:44:13.283Z,4.69
2023-02-02T08:46:42.179Z,4.54
2023-02-02T08:49:12.075Z,4.37
2023-02-02T08:51:40.787Z,4.25
2023-02-02T08:54:09.050Z,4.25
2023-02-02T08:56:37.057Z,4.39
2023-02-02T08:59:06.069Z,4.61
2023-02-02T09:01:34.954Z,4.85
2023-02-02T09:04:08.493Z,5.00
2023-02-02T09:06:38.851Z,5.05
2023-02-02T09:09:09.052Z,5.30
2023-02-02T09:11:39.047Z,6.82
2023-02-02T09:14:08.246Z,8.97
2023-02-02T09:16:36.785Z,10.95
2023-02-02T09:19:06.146Z,12.45
2023-02-02T09:21:37.529Z,13.54
2023-02-02T09:24:11.202Z,14.15
2023-02-02T09:26:40.690Z,13.37
2023-02-02T09:29:13.570Z,12.37
2023-02-02T09:31:42.196Z,11.41
2023-02-02T09:34:13.577Z,10.39
2023-02-02T09:36:42.838Z,9.78
2023-02-02T09:39:13.050Z,9.03
2023-02-02T09:41:41.000Z,8.39
2023-02-02T09:44:27.811Z,8.05
2023-02-02T09:47:20.266Z,7.63
2023-02-02T09:50:45.587Z,7.32
2023-02-02T09:53:19.886Z,7.11
2023-02-02T09:55:57.485Z,7.05
2023-02-02T09:58:32.797Z,7.13
2023-02-02T10:01:10.141Z,7.00
2023-02-02T10:03:38.194Z,6.87
2023-02-02T10:06:29.675Z,7.07
2023-02-02T10:09:23.548Z,7.12
2023-02-02T10:12:23.997Z,6.80
2023-02-02T10:15:17.906Z,6.38
2023-02-02T10:17:52.925Z,6.02
2023-02-02T10:20:44.750Z,5.80
2023-02-02T10:23:23.168Z,5.46
2023-02-02T10:26:29.993Z,5.19
2023-02-02T10:29:17.687Z,4.89
2023-02-02T10:31:55.145Z,4.74
2023-02-02T10:34:29.060Z,4.69
2023-02-02T10:37:03.821Z,4.72
2023-02-02T10:39:37.834Z,4.84
2023-02-02T10:42:21.578Z,5.19
2023-02-02T10:44:56.811Z,5.56
2023-02-02T10:47:33.302Z,6.00
2023-02-02T10:50:07.530Z,6.29
2023-02-02T10:52:36.960Z,6.41
2023-02-02T10:55:17.103Z,6.43
2023-02-02T10:58:13.292Z,6.42
2023-02-02T11:00:54.782Z,6.35
2023-02-02T11:03:26.756Z,6.23
2023-02-02T11:06:15.914Z,6.06
2023-02-02T11:08:56.729Z,6.00
2023-02-02T11:11:26.507Z,6.13
2023-02-02T11:14:01.401Z,6.21
2023-02-02T11:16:42.046Z,6.31
2023-02-02T11:19:17.930Z,6.40
2023-02-02T11:21:51.632Z,6.45
2023-02-02T11:24:36.835Z,6.51
2023-02-02T11:27:13.205Z,6.67
2023-02-02T11:29:45.853Z,6.93
2023-02-02T11:32:28.867Z,7.19
2023-02-02T11:35:02.994Z,7.40
2023-02-02T11:37:33.525Z,7.31
2023-02-02T11:40:20.939Z,7.21
2023-02-02T11:42:50.618Z,7.04
2023-02-02T11:45:24.666Z,6.83
2023-02-02T11:47:52.847Z,6.58
2023-02-02T11:50:27.617Z,6.34
2023-02-02T11:52:56.284Z,6.15
2023-02-02T11:55:30.479Z,6.00
2023-02-02T11:58:27.763Z,5.93
2023-02-02T12:01:02.367Z,5.84
2023-02-02T12:03:37.799Z,5.83
2023-02-02T12:06:38.540Z,5.86
2023-02-02T12:09:15.314Z,5.92
2023-02-02T12:12:05.320Z,6.18
2023-02-02T12:14:33.378Z,6.67
2023-02-02T12:17:17.780Z,7.00
2023-02-02T12:19:55.433Z,7.25
2023-02-02T12:22:26.158Z,7.41
2023-02-02T12:24:59.056Z,7.67
2023-02-02T12:27:49.746Z,8.15
2023-02-02T12:30:20.832Z,8.94
2023-02-02T12:33:11.848Z,9.90
2023-02-02T12:35:57.994Z,10.73
2023-02-02T12:38:43.005Z,10.97
2023-02-02T12:41:25.677Z,10.49
2023-02-02T12:44:07.582Z,10.11
2023-02-02T12:46:41.699Z,9.85
2023-02-02T12:49:53.387Z,9.93
2023-02-02T12:52:42.444Z,10.34
2023-02-02T12:55:17.189Z,10.69
2023-02-02T12:58:00.421Z,10.40
2023-02-02T13:00:58.742Z,10.39
2023-02-02T13:03:45.671Z,10.27
2023-02-02T13:06:16.994Z,9.94
2023-02-02T13:09:10.106Z,9.58
2023-02-02T13:12:02.625Z,9.51
2023-02-02T13:14:35.939Z,9.44
2023-02-02T13:17:16.506Z,9.14
2023-02-02T13:19:53.932Z,8.95
2023-02-02T13:22:30.321Z,9.07
2023-02-02T13:25:02.554Z,9.58
2023-02-02T13:27:32.246Z,9.84
2023-02-02T13:30:09.409Z,10.44
2023-02-02T13:32:42.521Z,11.27
2023-02-02T13:35:37.417Z,11.76
2023-02-02T13:38:16.292Z,11.53
2023-02-02T13:40:44.607Z,10.97
2023-02-02T13:43:25.129Z,10.53
2023-02-02T13:46:15.687Z,9.65
2023-02-02T13:48:52.669Z,8.97
2023-02-02T13:51:44.499Z,8.39
2023-02-02T13:54:21.276Z,7.89
2023-02-02T13:57:03.795Z,7.41
2023-02-02T13:59:50.615Z,6.93
2023-02-02T14:02:26.773Z,6.48
2023-02-02T14:04:58.416Z,6.23
2023-02-02T14:07:35.906Z,5.95
2023-02-02T14:10:04.670Z,5.75
2023-02-02T14:12:35.926Z,5.57
2023-02-02T14:15:07.094Z,5.45
2023-02-02T14:17:35.056Z,5.32
2023-02-02T14:20:08.670Z,5.14
2023-02-02T14:22:48.184Z,5.01
2023-02-02T14:25:36.954Z,4.89
2023-02-02T14:28:11.231Z,4.69
2023-02-02T14:30:40.624Z,4.52
2023-02-02T14:33:23.186Z,4.35
2023-02-02T14:35:55.560Z,4.20
2023-02-02T14:38:29.877Z,4.13
2023-02-02T14:41:46.076Z,4.07
2023-02-02T14:44:14.049Z,3.99
2023-02-02T14:46:48.348Z,3.95
2023-02-02T14:49:20.019Z,3.88
2023-02-02T14:51:55.463Z,3.84
2023-02-02T14:54:36.035Z,3.80
2023-02-02T14:57:25.410Z,3.77
2023-02-02T14:59:56.007Z,3.74
2023-02-02T15:02:33.144Z,3.73
2023-02-02T15:05:29.099Z,3.71
2023-02-02T15:08:28.408Z,3.69
2023-02-02T15:10:59.389Z,3.66
2023-02-02T15:13:37.785Z,3.63
2023-02-02T15:16:30.763Z,3.59
2023-02-02T15:19:07.331Z,3.55
2023-02-02T15:21:40.601Z,3.51
2023-02-02T15:24:21.832Z,3.47
2023-02-02T15:26:51.441Z,3.43
2023-02-02T15:29:33.534Z,3.39
2023-02-02T15:32:03.586Z,3.33
2023-02-02T15:34:45.572Z,3.27
2023-02-02T15:37:20.678Z,3.20
2023-02-02T15:39:56.358Z,3.13
2023-02-02T15:42:52.172Z,3.04
2023-02-02T15:45:43.589Z,2.95
2023-02-02T15:48:23.239Z,2.83
2023-02-02T15:50:55.412Z,2.71
2023-02-02T15:53:28.118Z,2.59
2023-02-02T15:55:57.495Z,2.46
2023-02-02T15:58:32.803Z,2.34
2023-02-02T16:01:03.528Z,2.21
2023-02-02T16:04:04.448Z,2.09
2023-02-02T16:06:34.859Z,1.95
2023-02-02T16:09:08.511Z,1.83
2023-02-02T16:11:42.367Z,1.71
2023-02-02T16:14:17.752Z,1.57
2023-02-02T16:16:47.557Z,1.44
2023-02-02T16:19:19.952Z,1.32
2023-02-02T16:21:54.067Z,1.18
2023-02-02T16:24:26.355Z,1.08
2023-02-02T16:26:57.625Z,0.95
2023-02-02T16:29:28.384Z,0.84
2023-02-02T16:31:57.342Z,0.74
2023-02-02T16:34:47.120Z,0.62
2023-02-02T16:37:22.553Z,0.52
2023-02-02T16:39:50.519Z,0.42
2023-02-02T16:42:30.523Z,0.31
2023-02-02T16:45:01.514Z,0.22
2023-02-02T16:47:30.640Z,0.15
2023-02-02T16:50:07.835Z,0.10
2023-02-02T16:53:02.689Z,0.06
2023-02-02T16:55:49.131Z,0.04
2023-02-02T16:58:21.957Z,0.03
2023-02-02T17:01:22.733Z,0.03
2023-02-02T17:03:55.550Z,0.05
2023-02-02T17:06:45.612Z,0.08
2023-02-02T17:09:36.147Z,0.10
2023-02-02T17:12:32.024Z,0.13
2023-02-02T17:15:05.773Z,0.16
2023-02-02T17:17:33.866Z,0.19
2023-02-02T17:20:01.947Z,0.21
2023-02-02T17:22:32.150Z,0.24
2023-02-02T17:25:00.147Z,0.26
2023-02-02T17:27:34.110Z,0.28
2023-02-02T17:30:04.611Z,0.30
2023-02-02T17:32:32.740Z,0.32
2023-02-02T17:35:00.714Z,0.34
2023-02-02T17:37:28.740Z,0.36
2023-02-02T17:39:56.801Z,0.38
2023-02-02T17:42:27.402Z,0.40
2023-02-02T17:44:55.459Z,0.43
2023-02-02T17:47:23.701Z,0.46
2023-02-02T17:49:51.711Z,0.49
2023-02-02T17:52:19.879Z,0.51
2023-02-02T17:54:47.781Z,0.54
2023-02-02T17:57:15.715Z,0.57
2023-02-02T17:59:43.931Z,0.60
2023-02-02T18:02:15.946Z,0.62
2023-02-02T18:04:45.591Z,0.65
2023-02-02T18:07:13.938Z,0.65
2023-02-02T18:09:42.114Z,0.66
2023-02-02T18:12:10.083Z,0.67
2023-02-02T18:14:38.290Z,0.68
2023-02-02T18:17:08.256Z,0.68
2023-02-02T18:19:36.410Z,0.69
2023-02-02T18:22:04.649Z,0.70
2023-02-02T18:24:32.902Z,0.70
2023-02-02T18:27:01.072Z,0.72
2023-02-02T18:29:29.349Z,0.73
2023-02-02T18:31:59.583Z,0.75
2023-02-02T18:34:35.433Z,0.78
2023-02-02T18:37:03.868Z,0.81
2023-02-02T18:39:33.159Z,0.85
2023-02-02T18:42:01.435Z,0.92
2023-02-02T18:44:29.589Z,0.98
2023-02-02T18:46:57.820Z,1.05
2023-02-02T18:49:25.850Z,1.12
2023-02-02T18:51:53.987Z,1.18
2023-02-02T18:54:22.565Z,1.24
2023-02-02T18:56:50.644Z,1.30
2023-02-02T18:59:18.578Z,1.37
2023-02-02T19:01:46.825Z,1.43
2023-02-02T19:04:14.956Z,1.49
2023-02-02T19:07:01.782Z,1.53
2023-02-02T19:09:30.051Z,1.59
2023-02-02T19:11:58.741Z,1.64
2023-02-02T19:14:36.873Z,1.67
2023-02-02T19:17:24.680Z,1.70
2023-02-02T19:19:53.259Z,1.74
2023-02-02T19:22:23.995Z,1.77
2023-02-02T19:24:52.372Z,1.79
2023-02-02T19:27:25.259Z,1.82
2023-02-02T19:29:59.875Z,1.84
2023-02-02T19:32:32.785Z,1.86
2023-02-02T19:35:05.560Z,1.88
2023-02-02T19:37:39.259Z,1.89
2023-02-02T19:40:19.543Z,1.91
2023-02-02T19:42:53.882Z,1.92
2023-02-02T19:45:48.386Z,1.94
2023-02-02T19:48:21.477Z,1.94
2023-02-02T19:50:49.691Z,1.92
2023-02-02T19:53:38.933Z,1.91
2023-02-02T19:56:28.246Z,1.90
2023-02-02T19:58:56.267Z,1.90
2023-02-02T20:01:30.213Z,1.88
2023-02-02T20:03:58.608Z,1.88
2023-02-02T20:06:30.539Z,1.87
2023-02-02T20:09:01.056Z,1.85
2023-02-02T20:11:35.605Z,1.84
2023-02-02T20:14:32.190Z,1.82
2023-02-02T20:17:06.633Z,1.81
2023-02-02T20:19:40.720Z,1.80
2023-02-02T20:22:34.914Z,1.81
2023-02-02T20:25:08.908Z,1.80
2023-02-02T20:27:38.284Z,1.79
2023-02-02T20:30:26.939Z,1.76
2023-02-02T20:32:58.574Z,1.76
2023-02-02T20:35:35.808Z,1.75
2023-02-02T20:38:28.531Z,1.74
2023-02-02T20:40:56.907Z,1.69
2023-02-02T20:43:24.937Z,1.67
2023-02-02T20:45:52.993Z,1.65
2023-02-02T20:48:21.259Z,1.61
2023-02-02T20:50:49.287Z,1.58
2023-02-02T20:53:17.324Z,1.54
2023-02-02T20:55:45.308Z,1.51
2023-02-02T20:58:13.396Z,1.48
2023-02-02T21:00:41.584Z,1.45
2023-02-02T21:03:09.646Z,1.41
2023-02-02T21:05:38.081Z,1.37
2023-02-02T21:08:07.233Z,1.34
2023-02-02T21:10:35.427Z,1.29
2023-02-02T21:13:03.392Z,1.27
2023-02-02T21:15:31.409Z,1.25
2023-02-02T21:17:59.335Z,1.21
2023-02-02T21:20:27.644Z,1.19
2023-02-02T21:22:56.900Z,1.17
2023-02-02T21:25:24.857Z,1.14
2023-02-02T21:27:58.147Z,1.12
2023-02-02T21:30:26.560Z,1.10
2023-02-02T21:32:55.222Z,1.08
2023-02-02T21:35:25.947Z,1.06
2023-02-02T21:37:57.639Z,1.03
2023-02-02T21:40:29.870Z,0.99
2023-02-02T21:42:59.808Z,0.97
2023-02-02T21:45:38.330Z,0.95
2023-02-02T21:48:21.289Z,0.94
2023-02-02T21:50:49.442Z,0.93
2023-02-02T21:53:17.300Z,0.91
2023-02-02T21:55:54.263Z,0.89
2023-02-02T21:58:25.188Z,0.87
2023-02-02T22:00:57.467Z,0.84
2023-02-02T22:03:31.422Z,0.83
2023-02-02T22:06:20.897Z,0.79
2023-02-02T22:08:50.763Z,0.74
2023-02-02T22:11:34.682Z,0.70
2023-02-02T22:14:11.890Z,0.63
2023-02-02T22:16:45.252Z,0.55
2023-02-02T22:19:28.628Z,0.46
2023-02-02T22:22:12.839Z,0.42
2023-02-02T22:24:42.297Z,0.38
2023-02-02T22:27:22.371Z,0.38
2023-02-02T22:29:56.844Z,0.35
2023-02-02T22:32:24.951Z,0.34
2023-02-02T22:34:52.954Z,0.33
2023-02-02T22:37:20.992Z,0.31
2023-02-02T22:39:49.342Z,0.28
2023-02-02T22:42:18.481Z,0.27
2023-02-02T22:44:46.575Z,0.26
2023-02-02T22:47:14.610Z,0.29
2023-02-02T22:49:42.654Z,0.27
2023-02-02T22:52:10.596Z,0.25
2023-02-02T22:54:38.794Z,0.26
2023-02-02T22:57:06.807Z,0.27
2023-02-02T22:59:34.922Z,0.25
2023-02-02T23:02:03.134Z,0.25
2023-02-02T23:04:31.221Z,0.27
2023-02-02T23:06:59.693Z,0.31
2023-02-02T23:09:27.899Z,0.34
2023-02-02T23:11:56.085Z,0.38
2023-02-02T23:14:24.419Z,0.41
2023-02-02T23:16:52.588Z,0.44
2023-02-02T23:19:20.640Z,0.45
2023-02-02T23:21:48.710Z,0.44
2023-02-02T23:24:17.067Z,0.41
2023-02-02T23:26:45.170Z,0.37
2023-02-02T23:29:13.256Z,0.35
2023-02-02T23:31:41.455Z,0.34
2023-02-02T23:34:09.898Z,0.34
2023-02-02T23:36:37.941Z,0.36
2023-02-02T23:39:06.253Z,0.39
2023-02-02T23:41:34.627Z,0.43
2023-02-02T23:44:02.754Z,0.46
2023-02-02T23:46:31.617Z,0.53
2023-02-02T23:49:00.723Z,0.59
2023-02-02T23:51:28.963Z,0.65
2023-02-02T23:53:57.902Z,0.70
2023-02-02T23:56:26.843Z,0.73
2023-02-02T23:58:54.886Z,0.76
